Time;durP1;ratioP1;P1;durP2;ratioP2;P2;SDS_P1;SDS_P2;PMS_P1;PMS_P2;Temp;Humidity;BMP_temperature;BMP_pressure;BME280_temperature;BME280_humidity;BME280_pressure;Samples;Min_cycle;Max_cycle;Signal;HPM_P1;HPM_P2
2022/03/27 00:01:49;;;;;;;7.65;6.70;;;13.70;67.60;;;;;;5086477;28;20032;-62
2022/03/27 00:04:15;;;;;;;8.80;6.60;;;13.70;67.70;;;;;;5088348;28;20122;-62
2022/03/27 00:06:41;;;;;;;8.88;7.53;;;13.70;67.80;;;;;;5085536;28;20447;-59
2022/03/27 00:09:07;;;;;;;7.85;6.72;;;13.70;67.90;;;;;;5091459;28;20069;-59
2022/03/27 00:11:33;;;;;;;8.52;6.60;;;13.70;67.80;;;;;;5085090;28;20036;-59
2022/03/27 00:14:04;;;;;;;8.88;7.18;;;13.70;67.80;;;;;;5084027;28;20024;-60
2022/03/27 00:16:30;;;;;;;8.90;7.22;;;13.70;67.90;;;;;;5098251;28;20108;-59
2022/03/27 00:18:56;;;;;;;8.02;6.90;;;13.70;67.90;;;;;;5084726;28;20031;-59
2022/03/27 00:21:22;;;;;;;7.47;6.78;;;13.70;68.00;;;;;;5085320;28;20526;-60
2022/03/27 00:23:52;;;;;;;9.32;6.38;;;13.70;68.20;;;;;;5087386;28;20383;-59
2022/03/27 00:26:20;;;;;;;7.68;6.90;;;13.60;67.90;;;;;;5103299;28;20055;-60
2022/03/27 00:28:46;;;;;;;7.63;6.72;;;13.60;68.10;;;;;;5089158;28;20491;-59
2022/03/27 00:31:12;;;;;;;8.00;6.85;;;13.60;68.20;;;;;;5091019;28;20041;-59
2022/03/27 00:33:41;;;;;;;7.88;7.13;;;13.50;68.20;;;;;;5102732;28;20028;-58
2022/03/27 00:36:10;;;;;;;9.25;8.23;;;13.40;68.40;;;;;;5089853;28;20487;-59
2022/03/27 00:38:36;;;;;;;8.57;7.53;;;13.40;68.50;;;;;;5093418;28;20550;-59
2022/03/27 00:41:04;;;;;;;8.55;7.40;;;13.40;68.70;;;;;;5090456;28;20051;-59
2022/03/27 00:43:30;;;;;;;9.15;8.25;;;13.30;68.60;;;;;;5089218;28;20036;-62
2022/03/27 00:45:56;;;;;;;9.70;8.68;;;13.30;68.70;;;;;;5088446;28;20028;-62
2022/03/27 00:48:22;;;;;;;9.32;8.38;;;13.30;68.70;;;;;;5089877;28;20055;-63
2022/03/27 00:50:50;;;;;;;12.93;8.77;;;13.40;68.80;;;;;;5090074;28;20031;-63
2022/03/27 00:53:16;;;;;;;10.57;9.38;;;13.30;68.70;;;;;;5087933;28;20028;-62
2022/03/27 00:55:44;;;;;;;10.32;8.50;;;13.30;68.90;;;;;;5097552;28;20059;-63
2022/03/27 00:58:11;;;;;;;10.18;9.15;;;13.20;68.80;;;;;;5089761;28;20035;-63
2022/03/27 01:00:42;;;;;;;10.45;9.18;;;13.20;68.90;;;;;;5097262;28;20497;-63
2022/03/27 01:03:20;;;;;;;13.23;9.55;;;13.20;68.90;;;;;;5087526;28;20024;-63
2022/03/27 01:05:50;;;;;;;10.90;9.80;;;13.10;69.20;;;;;;5087502;28;20038;-62
2022/03/27 01:09:35;;;;;;;11.98;10.57;;;13.10;69.30;;;;;;5089841;28;20514;-60
2022/03/27 01:11:10;;;;;;;11.15;9.65;;;13.10;69.40;;;;;;5094581;28;20490;-59
2022/03/27 01:13:38;;;;;;;11.93;10.68;;;13.10;69.30;;;;;;5091102;28;20048;-59
2022/03/27 01:16:13;;;;;;;11.52;10.43;;;13.10;70.00;;;;;;5089212;28;20107;-62
2022/03/27 01:18:39;;;;;;;12.68;11.20;;;13.10;69.60;;;;;;5089723;28;20028;-62
2022/03/27 01:21:07;;;;;;;13.13;11.82;;;13.10;69.60;;;;;;5090821;28;20086;-62
2022/03/27 01:23:34;;;;;;;12.93;11.63;;;13.10;69.80;;;;;;5090816;28;20028;-62
2022/03/27 01:26:00;;;;;;;12.63;10.57;;;13.10;69.80;;;;;;5088964;28;20445;-62
2022/03/27 01:28:26;;;;;;;11.77;10.63;;;13.00;69.80;;;;;;5089160;28;20024;-62
2022/03/27 01:30:52;;;;;;;11.75;10.60;;;13.00;69.80;;;;;;5095034;28;20027;-62
2022/03/27 01:33:17;;;;;;;12.35;11.05;;;13.00;70.00;;;;;;5085251;28;20061;-62
2022/03/27 01:35:43;;;;;;;11.63;10.45;;;13.00;70.30;;;;;;5086614;28;20067;-62
2022/03/27 01:38:09;;;;;;;10.45;9.35;;;13.00;70.10;;;;;;5100935;28;20023;-58
2022/03/27 01:40:34;;;;;;;13.48;10.27;;;12.90;69.90;;;;;;5090098;28;20028;-62
2022/03/27 01:43:00;;;;;;;10.60;9.35;;;12.90;70.00;;;;;;5093064;28;20466;-59
2022/03/27 01:45:27;;;;;;;11.43;10.32;;;12.80;70.00;;;;;;5092246;28;20535;-59
2022/03/27 01:47:53;;;;;;;9.43;8.52;;;12.80;70.00;;;;;;5092265;28;20032;-59
2022/03/27 01:50:19;;;;;;;11.40;10.18;;;12.80;70.00;;;;;;5086576;28;20016;-59
2022/03/27 01:52:45;;;;;;;9.43;8.52;;;12.80;69.90;;;;;;5092767;28;20372;-62
2022/03/27 01:55:13;;;;;;;10.80;9.80;;;12.80;70.00;;;;;;5089142;28;20032;-59
2022/03/27 01:57:41;;;;;;;11.52;9.30;;;12.70;70.10;;;;;;5088951;28;20478;-62
2022/03/27 02:00:09;;;;;;;10.85;8.80;;;12.70;70.10;;;;;;5088542;28;20028;-62
2022/03/27 02:02:35;;;;;;;10.05;8.98;;;12.70;70.10;;;;;;5087548;28;20043;-62
2022/03/27 02:05:02;;;;;;;12.93;9.88;;;12.60;70.00;;;;;;5096588;28;20103;-63
2022/03/27 02:07:38;;;;;;;14.05;10.45;;;12.60;70.20;;;;;;5087979;28;20475;-59
2022/03/27 02:10:05;;;;;;;10.57;9.48;;;12.60;70.30;;;;;;5088610;28;20056;-59
2022/03/27 02:12:34;;;;;;;10.75;9.65;;;12.50;70.10;;;;;;5092691;28;20119;-59
2022/03/27 02:15:01;;;;;;;10.93;9.80;;;12.50;70.20;;;;;;5087007;27;20107;-59
2022/03/27 02:17:26;;;;;;;12.52;10.80;;;12.50;70.30;;;;;;5086162;28;20039;-60
2022/03/27 02:19:52;;;;;;;12.48;10.45;;;12.50;70.40;;;;;;5069460;28;20024;-59
2022/03/27 02:22:18;;;;;;;11.30;10.13;;;12.50;70.40;;;;;;5076896;28;20080;-59
2022/03/27 02:24:43;;;;;;;12.52;11.23;;;12.50;70.40;;;;;;5083766;28;20040;-59
2022/03/27 02:27:09;;;;;;;12.70;10.45;;;12.50;70.60;;;;;;5093499;28;20032;-59
2022/03/27 02:29:35;;;;;;;13.02;10.60;;;12.50;70.50;;;;;;5095419;28;20131;-59
2022/03/27 02:32:00;;;;;;;12.40;10.00;;;12.50;70.60;;;;;;5086762;28;20032;-59
2022/03/27 02:34:26;;;;;;;12.30;10.13;;;12.40;70.50;;;;;;5088982;28;20028;-59
2022/03/27 02:36:52;;;;;;;12.30;10.00;;;12.40;70.40;;;;;;5089005;28;20538;-60
2022/03/27 02:39:17;;;;;;;10.88;9.68;;;12.40;70.40;;;;;;5086977;28;20111;-59
2022/03/27 02:41:45;;;;;;;10.35;9.25;;;12.30;70.30;;;;;;5088393;28;20047;-59
2022/03/27 02:44:12;;;;;;;11.30;10.10;;;12.30;70.20;;;;;;5087977;28;20031;-59
2022/03/27 02:46:38;;;;;;;11.65;10.23;;;12.30;70.30;;;;;;5095017;28;20056;-63
2022/03/27 02:49:04;;;;;;;12.07;9.65;;;12.30;70.40;;;;;;5086819;28;20024;-63
2022/03/27 02:51:30;;;;;;;12.18;10.05;;;12.20;70.20;;;;;;5086167;28;20364;-63
2022/03/27 02:53:55;;;;;;;11.93;9.80;;;12.20;70.10;;;;;;5084690;28;20497;-59
2022/03/27 02:56:21;;;;;;;12.93;10.05;;;12.20;70.20;;;;;;5086371;28;20032;-59
2022/03/27 02:58:47;;;;;;;10.73;8.93;;;12.10;70.00;;;;;;5083055;28;20023;-59
2022/03/27 03:01:12;;;;;;;13.23;9.95;;;12.00;69.90;;;;;;5084149;28;20055;-62
2022/03/27 03:03:38;;;;;;;14.25;11.00;;;12.00;69.90;;;;;;5091816;28;20130;-61
2022/03/27 03:06:07;;;;;;;15.43;11.02;;;11.90;70.00;;;;;;5095449;28;20085;-58
2022/03/27 03:08:36;;;;;;;16.90;12.63;;;11.90;69.90;;;;;;5089304;28;20036;-62
2022/03/27 03:11:02;;;;;;;16.55;12.55;;;11.80;69.90;;;;;;5093402;28;20038;-63
2022/03/27 03:13:28;;;;;;;19.15;12.57;;;11.80;70.00;;;;;;5101091;28;20027;-62
2022/03/27 03:15:55;;;;;;;17.52;12.35;;;11.80;70.00;;;;;;5093122;28;20056;-59
2022/03/27 03:18:21;;;;;;;21.95;13.98;;;11.80;70.00;;;;;;5094432;28;20069;-62
2022/03/27 03:20:47;;;;;;;18.75;12.77;;;11.80;70.20;;;;;;5089116;28;20036;-59
2022/03/27 03:23:13;;;;;;;20.38;13.32;;;11.80;70.30;;;;;;5083550;28;20696;-58
2022/03/27 03:25:41;;;;;;;20.83;14.02;;;11.70;70.40;;;;;;5089121;28;20035;-58
2022/03/27 03:28:06;;;;;;;19.13;13.45;;;11.70;70.40;;;;;;5090505;28;20028;-61
2022/03/27 03:30:32;;;;;;;19.77;14.30;;;11.70;70.50;;;;;;5088401;28;20057;-61
2022/03/27 03:32:58;;;;;;;22.75;15.20;;;11.70;70.40;;;;;;5088650;28;20453;-59
2022/03/27 03:35:23;;;;;;;21.17;15.00;;;11.70;70.50;;;;;;5088416;28;20413;-62
2022/03/27 03:37:49;;;;;;;20.02;13.90;;;11.70;70.70;;;;;;5094927;28;20023;-61
2022/03/27 03:40:15;;;;;;;21.08;14.95;;;11.70;70.60;;;;;;5083808;28;21030;-62
2022/03/27 03:42:41;;;;;;;22.42;14.52;;;11.70;70.70;;;;;;5087532;28;20031;-62
2022/03/27 03:45:07;;;;;;;28.00;15.75;;;11.70;70.70;;;;;;5088054;28;20110;-63
2022/03/27 03:47:32;;;;;;;25.52;16.77;;;11.70;70.70;;;;;;5086341;28;20031;-59
2022/03/27 03:49:58;;;;;;;25.58;16.75;;;11.70;70.90;;;;;;5092187;28;20032;-59
2022/03/27 03:52:24;;;;;;;24.70;15.90;;;11.70;70.90;;;;;;5090239;28;20115;-59
2022/03/27 03:54:49;;;;;;;25.63;16.92;;;11.60;71.00;;;;;;5084009;28;20020;-59
2022/03/27 03:57:15;;;;;;;25.30;17.15;;;11.60;71.00;;;;;;5087883;28;20036;-62
2022/03/27 03:59:41;;;;;;;23.77;16.23;;;11.60;71.00;;;;;;5085294;28;20085;-62
2022/03/27 04:02:13;;;;;;;25.73;16.40;;;11.60;71.00;;;;;;5092261;28;20034;-63
2022/03/27 04:04:39;;;;;;;;;;;11.60;71.10;;;;;;5089991;28;20047;-59
2022/03/27 04:07:05;;;;;;;20.38;14.30;;;11.60;70.90;;;;;;5093653;28;20299;-59
2022/03/27 04:09:31;;;;;;;20.73;14.50;;;11.50;70.80;;;;;;5090202;28;20067;-59
2022/03/27 04:11:57;;;;;;;18.33;12.93;;;11.50;70.80;;;;;;5097981;28;20024;-59
2022/03/27 04:14:23;;;;;;;16.95;12.05;;;11.40;70.70;;;;;;5090436;28;20056;-61
2022/03/27 04:16:49;;;;;;;17.98;12.00;;;11.30;70.70;;;;;;5095190;28;20070;-59
2022/03/27 04:19:15;;;;;;;15.85;11.57;;;11.30;70.60;;;;;;5095669;28;20089;-58
2022/03/27 04:21:42;;;;;;;15.27;10.85;;;11.20;70.70;;;;;;5088134;28;20055;-58
2022/03/27 04:24:09;;;;;;;16.95;12.95;;;11.10;70.70;;;;;;5100940;28;20523;-63
2022/03/27 04:26:35;;;;;;;16.83;12.27;;;11.10;70.80;;;;;;5085031;28;20040;-59
2022/03/27 04:29:02;;;;;;;19.42;13.35;;;11.10;70.70;;;;;;5083458;28;20027;-61
2022/03/27 04:31:29;;;;;;;16.42;11.32;;;11.10;70.60;;;;;;5086959;28;20431;-60
2022/03/27 04:33:55;;;;;;;16.88;11.68;;;11.10;70.50;;;;;;5084155;28;20016;-59
2022/03/27 04:36:21;;;;;;;15.93;10.93;;;11.10;70.30;;;;;;5089191;28;20028;-59
2022/03/27 04:38:46;;;;;;;15.55;10.45;;;11.00;70.20;;;;;;5083350;28;20048;-61
2022/03/27 04:41:12;;;;;;;16.15;11.40;;;11.00;70.10;;;;;;5085051;28;20051;-62
2022/03/27 04:43:38;;;;;;;16.02;11.32;;;10.90;70.00;;;;;;5086422;28;20043;-59
2022/03/27 04:46:04;;;;;;;13.95;10.55;;;10.90;69.90;;;;;;5085019;28;20059;-59
2022/03/27 04:48:30;;;;;;;17.13;11.90;;;10.90;69.80;;;;;;5085363;28;20032;-58
2022/03/27 04:50:56;;;;;;;15.77;11.48;;;10.90;69.80;;;;;;5079696;28;20028;-59
2022/03/27 04:53:21;;;;;;;16.83;11.55;;;10.90;69.70;;;;;;5095135;28;20032;-59
2022/03/27 04:55:47;;;;;;;14.30;11.35;;;10.90;69.70;;;;;;5086532;28;20019;-59
2022/03/27 04:58:13;;;;;;;16.27;11.98;;;10.90;69.70;;;;;;5079895;28;20028;-59
2022/03/27 05:00:39;;;;;;;17.73;12.20;;;10.90;69.80;;;;;;5087013;28;20032;-63
2022/03/27 05:03:05;;;;;;;15.60;11.30;;;10.90;69.70;;;;;;5091449;28;20166;-61
2022/03/27 05:05:31;;;;;;;16.33;11.95;;;10.80;69.60;;;;;;5087083;28;20039;-62
2022/03/27 05:07:58;;;;;;;15.73;11.52;;;10.80;69.60;;;;;;5084736;28;20048;-62
2022/03/27 05:10:24;;;;;;;16.33;11.80;;;10.80;69.80;;;;;;5081758;28;20036;-62
2022/03/27 05:12:50;;;;;;;13.82;10.43;;;10.80;69.80;;;;;;5088320;28;20016;-61
2022/03/27 05:15:16;;;;;;;14.32;10.55;;;10.70;69.60;;;;;;5088409;28;20032;-58
2022/03/27 05:17:55;;;;;;;17.08;11.02;;;10.70;69.30;;;;;;5088858;28;20114;-59
2022/03/27 05:20:21;;;;;;;11.48;9.60;;;10.70;69.10;;;;;;5091390;28;20036;-62
2022/03/27 05:22:47;;;;;;;13.25;10.65;;;10.70;68.90;;;;;;5093312;28;20032;-62
2022/03/27 05:25:15;;;;;;;13.93;10.43;;;10.60;68.90;;;;;;5088183;28;20082;-62
2022/03/27 05:27:50;;;;;;;15.00;10.38;;;10.60;68.90;;;;;;5087158;28;20036;-63
2022/03/27 05:30:18;;;;;;;13.75;9.93;;;10.50;68.70;;;;;;5090222;28;20032;-63
2022/03/27 05:32:44;;;;;;;13.45;10.52;;;10.50;68.70;;;;;;5089045;28;20020;-62
2022/03/27 05:35:10;;;;;;;15.77;10.95;;;10.50;68.70;;;;;;5089876;28;20032;-60
2022/03/27 05:37:38;;;;;;;13.32;10.52;;;10.40;68.70;;;;;;5092877;28;20031;-60
2022/03/27 05:40:05;;;;;;;14.18;10.70;;;10.40;68.90;;;;;;5099368;28;20035;-58
2022/03/27 05:42:31;;;;;;;16.40;10.80;;;10.40;68.90;;;;;;5087910;28;20555;-60
2022/03/27 05:44:57;;;;;;;14.75;11.65;;;10.40;68.80;;;;;;5092077;28;20078;-59
2022/03/27 05:47:22;;;;;;;13.73;10.40;;;10.30;68.90;;;;;;5089732;28;20078;-60
2022/03/27 05:49:48;;;;;;;14.23;10.88;;;10.30;69.60;;;;;;5094320;28;20032;-61
2022/03/27 05:52:16;;;;;;;14.77;10.82;;;10.20;69.00;;;;;;5086913;28;20036;-62
2022/03/27 05:54:42;;;;;;;15.05;11.60;;;10.20;69.20;;;;;;5096378;28;20295;-61
2022/03/27 05:57:08;;;;;;;15.52;11.73;;;10.20;69.30;;;;;;5096731;28;20060;-61
2022/03/27 05:59:33;;;;;;;18.48;12.57;;;10.20;69.40;;;;;;5089783;28;20479;-61
2022/03/27 06:01:59;;;;;;;17.75;12.25;;;10.20;69.50;;;;;;5096716;28;20036;-62
2022/03/27 06:04:25;;;;;;;16.17;11.82;;;10.20;69.40;;;;;;5108452;28;20032;-62
2022/03/27 06:06:51;;;;;;;19.10;12.35;;;10.20;69.50;;;;;;5090746;28;20035;-62
2022/03/27 06:09:16;;;;;;;17.23;11.85;;;10.20;69.60;;;;;;5094298;28;20081;-59
2022/03/27 06:11:42;;;;;;;21.65;13.15;;;10.20;69.60;;;;;;5070978;28;20028;-62
2022/03/27 06:14:07;;;;;;;19.38;12.25;;;10.20;69.70;;;;;;5105280;28;20032;-62
2022/03/27 06:16:33;;;;;;;21.08;13.05;;;10.20;69.70;;;;;;5088063;28;20119;-59
2022/03/27 06:18:59;;;;;;;19.40;12.65;;;10.10;69.60;;;;;;5090863;28;20113;-58
2022/03/27 06:21:24;;;;;;;16.25;11.45;;;10.10;69.70;;;;;;5089070;28;20043;-58
2022/03/27 06:23:50;;;;;;;18.65;13.07;;;10.10;69.70;;;;;;5096562;28;20453;-61
2022/03/27 06:26:16;;;;;;;17.88;13.27;;;10.10;69.60;;;;;;5088966;28;20042;-62
2022/03/27 06:28:41;;;;;;;18.70;12.73;;;10.00;69.60;;;;;;5087816;28;20139;-59
2022/03/27 06:31:08;;;;;;;17.50;12.52;;;10.00;69.70;;;;;;5092972;28;20023;-59
2022/03/27 06:33:33;;;;;;;18.70;12.77;;;10.00;69.70;;;;;;5089481;28;20038;-59
2022/03/27 06:36:01;;;;;;;19.45;13.30;;;10.00;69.50;;;;;;5089169;28;20028;-59
2022/03/27 06:38:28;;;;;;;20.10;12.23;;;10.00;69.60;;;;;;5088959;28;20027;-59
2022/03/27 06:40:55;;;;;;;19.15;12.90;;;9.90;69.70;;;;;;5087457;28;20024;-59
2022/03/27 06:43:22;;;;;;;17.63;12.32;;;10.00;69.60;;;;;;5100142;28;20944;-59
2022/03/27 06:45:49;;;;;;;18.30;13.05;;;10.00;69.60;;;;;;5085138;28;20035;-58
2022/03/27 06:48:15;;;;;;;19.17;11.80;;;10.00;69.70;;;;;;5089054;28;20024;-61
2022/03/27 06:50:41;;;;;;;17.63;12.40;;;10.00;69.60;;;;;;5087577;28;20098;-58
2022/03/27 06:53:07;;;;;;;18.55;12.30;;;10.00;69.60;;;;;;5098142;28;20049;-62
2022/03/27 06:55:33;;;;;;;18.52;13.20;;;10.00;69.60;;;;;;5091513;28;20031;-61
2022/03/27 06:57:58;;;;;;;18.95;12.43;;;10.00;70.30;;;;;;5087688;28;20036;-62
2022/03/27 07:03:11;;;;;;;18.65;12.48;;;10.10;69.80;;;;;;5086076;28;20047;-59
2022/03/27 07:05:44;;;;;;;21.25;13.23;;;10.10;69.80;;;;;;5083602;28;20055;-62
2022/03/27 07:08:15;;;;;;;20.67;12.05;;;10.20;69.90;;;;;;5089397;28;20040;-58
2022/03/27 07:10:42;;;;;;;18.52;12.55;;;10.30;69.90;;;;;;5078231;28;20047;-59
2022/03/27 07:13:09;;;;;;;19.15;12.38;;;10.30;69.70;;;;;;5084441;28;20032;-59
2022/03/27 07:15:37;;;;;;;17.77;11.88;;;10.30;69.50;;;;;;5084394;28;20032;-58
2022/03/27 07:18:03;;;;;;;23.17;12.75;;;10.40;69.50;;;;;;5086503;28;20032;-58
2022/03/27 07:20:32;;;;;;;19.02;12.27;;;10.40;69.20;;;;;;5084553;28;20045;-61
2022/03/27 07:23:00;;;;;;;18.85;12.38;;;10.40;69.20;;;;;;5081406;28;20247;-62
2022/03/27 07:25:28;;;;;;;20.70;13.02;;;10.50;69.20;;;;;;5089057;28;20036;-59
2022/03/27 07:27:54;;;;;;;19.23;13.00;;;10.50;69.20;;;;;;5082571;28;20051;-59
2022/03/27 07:30:21;;;;;;;20.98;13.20;;;10.50;69.00;;;;;;5089015;28;20016;-59
2022/03/27 07:32:47;;;;;;;20.48;13.02;;;10.60;68.90;;;;;;5081353;28;20186;-62
2022/03/27 07:35:15;;;;;;;19.67;13.57;;;10.60;68.90;;;;;;5069451;28;20102;-62
2022/03/27 07:37:42;;;;;;;18.90;12.68;;;10.60;68.70;;;;;;5077719;28;20509;-62
2022/03/27 07:40:10;;;;;;;19.27;13.13;;;10.70;68.60;;;;;;5068105;28;20091;-58
2022/03/27 07:42:41;;;;;;;21.85;13.02;;;10.70;68.50;;;;;;5084260;28;20140;-61
2022/03/27 07:45:09;;;;;;;19.30;12.93;;;10.70;68.20;;;;;;5079759;28;20025;-59
2022/03/27 07:47:34;;;;;;;18.23;12.32;;;10.70;68.30;;;;;;5082727;28;20705;-61
2022/03/27 07:50:00;;;;;;;18.27;12.40;;;10.70;68.20;;;;;;5080920;28;20063;-61
2022/03/27 07:52:27;;;;;;;15.90;11.73;;;10.70;68.00;;;;;;5084036;28;20032;-62
2022/03/27 07:54:53;;;;;;;18.67;13.13;;;10.70;67.80;;;;;;5091357;28;20020;-59
2022/03/27 07:57:22;;;;;;;18.13;12.10;;;10.70;67.70;;;;;;5074693;28;20070;-62
2022/03/27 07:59:48;;;;;;;21.15;13.45;;;10.70;67.40;;;;;;5094549;28;20145;-62
2022/03/27 08:02:15;;;;;;;16.58;11.95;;;10.80;67.50;;;;;;5089999;28;20510;-62
2022/03/27 08:04:40;;;;;;;16.35;11.95;;;10.80;67.50;;;;;;5083311;28;20028;-62
2022/03/27 08:07:06;;;;;;;19.08;13.35;;;10.90;67.50;;;;;;5091498;28;20075;-58
2022/03/27 08:09:32;;;;;;;17.55;12.55;;;10.90;67.20;;;;;;5085874;28;20043;-58
2022/03/27 08:11:57;;;;;;;20.80;13.32;;;11.00;67.00;;;;;;5085611;28;20386;-62
2022/03/27 08:14:28;;;;;;;16.95;12.70;;;11.00;66.60;;;;;;5085264;28;20062;-62
2022/03/27 08:16:55;;;;;;;18.08;12.85;;;11.00;66.20;;;;;;5085554;28;20031;-59
2022/03/27 08:19:21;;;;;;;16.92;12.23;;;11.10;66.00;;;;;;5087559;28;20101;-59
2022/03/27 08:21:47;;;;;;;15.40;11.63;;;11.10;65.70;;;;;;5092946;28;20024;-57
2022/03/27 08:24:13;;;;;;;16.80;12.50;;;11.10;65.50;;;;;;5091399;28;20032;-59
2022/03/27 08:26:57;;;;;;;17.23;12.20;;;11.20;64.50;;;;;;5083817;28;20434;-62
2022/03/27 08:29:34;;;;;;;14.52;11.35;;;11.20;64.30;;;;;;5091785;28;20028;-62
2022/03/27 08:32:02;;;;;;;15.32;12.18;;;11.20;64.40;;;;;;5086519;28;20474;-59
2022/03/27 08:34:30;;;;;;;18.30;12.15;;;11.30;63.60;;;;;;5083323;28;20021;-58
2022/03/27 08:36:57;;;;;;;17.88;13.20;;;11.30;63.30;;;;;;5081960;28;20189;-58
2022/03/27 08:39:25;;;;;;;18.05;13.00;;;11.30;63.10;;;;;;5087794;28;20036;-60
2022/03/27 08:41:54;;;;;;;18.05;12.82;;;11.40;63.40;;;;;;5087901;28;20032;-59
2022/03/27 08:44:21;;;;;;;18.20;11.82;;;11.40;63.50;;;;;;5092827;28;20016;-58
2022/03/27 08:46:48;;;;;;;15.05;11.43;;;11.50;63.10;;;;;;5083840;28;20036;-58
2022/03/27 08:49:17;;;;;;;16.35;11.65;;;11.50;63.60;;;;;;5085829;28;20035;-58
2022/03/27 08:51:55;;;;;;;15.00;11.60;;;11.60;62.80;;;;;;5085593;28;20029;-59
2022/03/27 08:54:25;;;;;;;14.68;10.77;;;11.60;62.40;;;;;;5087712;28;20016;-59
2022/03/27 08:57:08;;;;;;;15.73;10.57;;;11.60;62.30;;;;;;5088565;28;20050;-58
2022/03/27 08:59:37;;;;;;;16.00;10.68;;;11.70;61.70;;;;;;5087775;28;20115;-58
2022/03/27 09:02:03;;;;;;;14.15;10.70;;;11.70;61.40;;;;;;5086158;28;20032;-59
2022/03/27 09:04:31;;;;;;;18.60;11.73;;;11.70;61.60;;;;;;5071984;28;20028;-59
2022/03/27 09:06:57;;;;;;;18.83;11.73;;;11.80;61.80;;;;;;5086052;28;20048;-58
2022/03/27 09:09:22;;;;;;;14.95;11.02;;;11.80;61.60;;;;;;5087146;28;20020;-59
2022/03/27 09:11:49;;;;;;;15.38;11.52;;;11.90;61.50;;;;;;5091124;28;20376;-59
2022/03/27 09:14:16;;;;;;;14.40;10.98;;;12.00;61.20;;;;;;5079316;28;20118;-59
2022/03/27 09:17:02;;;;;;;16.30;11.40;;;12.10;60.80;;;;;;5087517;28;20376;-59
2022/03/27 09:19:40;;;;;;;14.43;10.50;;;12.20;60.80;;;;;;5083700;28;20151;-59
2022/03/27 09:22:22;;;;;;;13.05;9.80;;;12.30;60.10;;;;;;5082522;28;20491;-58
2022/03/27 09:25:08;;;;;;;15.52;10.93;;;12.40;60.00;;;;;;5082618;28;20021;-58
2022/03/27 09:27:36;;;;;;;15.05;10.57;;;12.40;59.60;;;;;;5079405;28;20407;-62
2022/03/27 09:30:11;;;;;;;15.82;10.15;;;12.50;59.50;;;;;;5082483;28;20032;-62
2022/03/27 09:32:39;;;;;;;14.48;9.95;;;12.60;59.80;;;;;;5071467;28;20529;-58
2022/03/27 09:35:11;;;;;;;15.55;10.55;;;12.70;59.50;;;;;;5071886;28;20016;-59
2022/03/27 09:37:46;;;;;;;11.68;8.60;;;12.80;59.20;;;;;;5075328;28;20059;-59
2022/03/27 09:40:13;;;;;;;14.60;10.02;;;12.90;58.30;;;;;;5077225;28;20028;-62
2022/03/27 09:42:40;;;;;;;12.20;9.25;;;13.00;58.00;;;;;;5079516;28;20478;-59
2022/03/27 09:45:16;;;;;;;13.45;10.75;;;13.10;58.50;;;;;;5090046;28;20051;-58
2022/03/27 09:47:44;;;;;;;16.63;11.60;;;13.20;58.70;;;;;;5077941;28;20105;-58
2022/03/27 09:50:35;;;;;;;16.45;11.63;;;13.30;58.70;;;;;;5082321;28;20020;-62
2022/03/27 09:53:27;;;;;;;14.32;10.48;;;13.40;58.70;;;;;;5078301;28;20025;-62
2022/03/27 09:56:00;;;;;;;15.95;11.15;;;13.50;58.90;;;;;;5079671;28;20042;-58
2022/03/27 09:58:45;;;;;;;17.52;12.32;;;13.50;58.30;;;;;;5081744;28;20463;-61
2022/03/27 10:01:11;;;;;;;16.65;11.60;;;13.60;57.80;;;;;;5082648;28;20047;-62
2022/03/27 10:03:59;;;;;;;14.90;10.95;;;13.60;57.50;;;;;;5094713;28;20026;-62
2022/03/27 10:06:37;;;;;;;13.10;10.10;;;13.60;57.80;;;;;;5077969;28;20094;-62
2022/03/27 10:09:04;;;;;;;14.95;10.52;;;13.60;57.80;;;;;;5090881;28;20020;-62
2022/03/27 10:11:30;;;;;;;17.67;11.70;;;13.70;57.60;;;;;;5095069;28;20026;-61
2022/03/27 10:13:56;;;;;;;15.57;11.23;;;13.80;57.20;;;;;;5090188;28;20115;-62
2022/03/27 10:16:28;;;;;;;13.75;10.55;;;13.90;57.10;;;;;;5094504;28;20467;-62
2022/03/27 10:19:02;;;;;;;12.48;9.95;;;14.00;57.00;;;;;;5083462;28;20032;-62
2022/03/27 10:21:29;;;;;;;16.10;10.85;;;14.10;57.00;;;;;;5086999;28;20132;-62
2022/03/27 10:24:14;;;;;;;13.73;9.50;;;14.20;56.30;;;;;;5089673;28;20028;-62
2022/03/27 10:26:42;;;;;;;14.13;10.48;;;14.40;56.20;;;;;;5104323;28;20103;-62
2022/03/27 10:29:09;;;;;;;13.93;11.05;;;14.50;55.80;;;;;;5095664;28;20032;-59
2022/03/27 10:31:36;;;;;;;15.00;10.65;;;14.50;55.50;;;;;;5091540;28;20043;-59
2022/03/27 10:34:04;;;;;;;14.07;9.07;;;14.60;55.10;;;;;;5093988;28;20052;-59
2022/03/27 10:36:44;;;;;;;10.60;7.50;;;14.60;54.70;;;;;;5081463;28;20488;-59
2022/03/27 10:39:55;;;;;;;9.30;6.40;;;14.70;52.00;;;;;;5084261;28;20335;-59
2022/03/27 10:42:45;;;;;;;7.53;5.13;;;14.80;51.00;;;;;;5084325;28;20086;-58
2022/03/27 10:45:20;;;;;;;9.15;6.55;;;14.90;50.50;;;;;;5073986;28;20090;-59
2022/03/27 10:48:15;;;;;;;8.65;6.30;;;15.10;48.90;;;;;;5077744;28;20033;-59
2022/03/27 10:50:51;;;;;;;6.70;4.93;;;15.30;48.30;;;;;;5074329;28;20115;-59
2022/03/27 10:53:22;;;;;;;8.45;5.90;;;15.40;48.40;;;;;;5069563;28;20036;-59
2022/03/27 10:55:51;;;;;;;9.73;5.97;;;15.60;47.60;;;;;;5080615;28;20073;-59
2022/03/27 10:58:29;;;;;;;8.25;4.82;;;15.70;47.60;;;;;;5079048;28;20436;-59
2022/03/27 11:00:56;;;;;;;6.63;4.70;;;15.80;46.90;;;;;;5071657;28;20024;-62
2022/03/27 11:03:47;;;;;;;7.82;4.85;;;15.90;45.90;;;;;;5076051;28;20020;-61
2022/03/27 11:06:27;;;;;;;9.65;4.82;;;16.00;45.00;;;;;;5081053;28;20067;-58
2022/03/27 11:08:55;;;;;;;7.90;4.57;;;16.10;43.60;;;;;;5084710;28;20081;-59
2022/03/27 11:11:44;;;;;;;9.23;5.13;;;16.20;44.10;;;;;;5073741;28;20039;-60
2022/03/27 11:14:21;;;;;;;7.60;4.78;;;16.30;44.50;;;;;;5074271;28;20480;-59
2022/03/27 11:17:11;;;;;;;10.35;5.05;;;16.40;44.20;;;;;;5082932;28;20031;-58
2022/03/27 11:19:42;;;;;;;8.25;5.00;;;16.50;44.30;;;;;;5065954;28;20407;-59
2022/03/27 11:22:44;;;;;;;7.07;4.90;;;16.60;44.00;;;;;;5068167;28;20027;-59
2022/03/27 11:25:28;;;;;;;8.85;4.38;;;16.70;43.90;;;;;;5067796;28;20395;-63
2022/03/27 11:28:03;;;;;;;6.55;4.00;;;16.90;43.50;;;;;;5076508;28;20451;-60
2022/03/27 11:30:30;;;;;;;6.07;3.85;;;17.00;42.40;;;;;;5086712;28;20020;-60
2022/03/27 11:33:19;;;;;;;6.65;3.85;;;17.20;42.50;;;;;;5087995;28;20544;-63
2022/03/27 11:36:07;;;;;;;7.00;3.88;;;17.40;42.20;;;;;;5083967;28;20016;-59
2022/03/27 11:38:51;;;;;;;7.03;4.22;;;17.50;42.20;;;;;;5086545;28;20122;-60
2022/03/27 11:41:34;;;;;;;5.60;3.63;;;17.60;41.60;;;;;;5087065;28;20118;-63
2022/03/27 11:44:18;;;;;;;8.27;4.07;;;17.70;41.60;;;;;;5088236;28;20051;-63
2022/03/27 11:46:48;;;;;;;9.00;4.85;;;17.80;41.10;;;;;;5087665;28;20028;-62
2022/03/27 11:49:14;;;;;;;9.07;5.90;;;17.90;40.00;;;;;;5086065;28;20024;-59
2022/03/27 11:51:40;;;;;;;6.72;4.53;;;18.00;40.90;;;;;;5087624;28;20387;-58
2022/03/27 11:54:20;;;;;;;9.48;7.22;;;18.10;41.20;;;;;;5087382;28;20032;-59
2022/03/27 11:57:00;;;;;;;10.00;5.57;;;18.20;41.10;;;;;;5087717;28;20028;-62
2022/03/27 11:59:26;;;;;;;11.15;6.80;;;18.30;41.70;;;;;;5097643;28;20031;-62
2022/03/27 12:02:00;;;;;;;8.50;5.95;;;18.40;42.00;;;;;;5087498;28;20043;-58
2022/03/27 12:04:27;;;;;;;7.93;5.88;;;18.40;42.30;;;;;;5085132;28;20032;-59
2022/03/27 12:06:57;;;;;;;6.80;5.45;;;18.40;42.20;;;;;;5092438;28;20070;-62
2022/03/27 12:09:28;;;;;;;9.52;6.50;;;18.40;42.60;;;;;;5083695;28;20052;-62
2022/03/27 12:12:11;;;;;;;9.50;6.72;;;18.40;41.40;;;;;;5085074;28;20059;-62
2022/03/27 12:14:56;;;;;;;7.82;5.72;;;18.30;42.10;;;;;;5078009;28;20029;-62
2022/03/27 12:17:23;;;;;;;9.45;6.35;;;18.40;42.40;;;;;;5080402;28;20028;-62
2022/03/27 12:20:05;;;;;;;8.32;5.57;;;18.50;42.10;;;;;;5086219;28;20042;-63
2022/03/27 12:22:45;;;;;;;8.93;5.78;;;18.60;42.10;;;;;;5083090;28;20072;-62
2022/03/27 12:25:20;;;;;;;8.35;5.57;;;18.80;41.20;;;;;;5080822;28;20035;-62
2022/03/27 13:43:12;;;;;;;9.27;5.07;;;19.60;41.30;;;;;;5036433;27;1976481;-59
2022/03/27 13:45:13;;;;;;;11.65;6.25;;;19.70;42.10;;;;;;5070587;28;20440;-58
2022/03/27 13:47:39;;;;;;;12.38;6.10;;;20.00;41.40;;;;;;5084365;28;20123;-61
2022/03/27 13:50:05;;;;;;;7.70;4.82;;;20.20;41.50;;;;;;5085599;28;20077;-58
2022/03/27 13:52:31;;;;;;;8.43;4.75;;;20.40;40.80;;;;;;5086413;28;20078;-59
2022/03/27 13:54:57;;;;;;;8.63;4.47;;;20.60;40.30;;;;;;5086627;28;20036;-59
2022/03/27 13:57:23;;;;;;;7.40;4.55;;;20.80;39.70;;;;;;5086797;28;20400;-59
2022/03/27 13:59:51;;;;;;;9.38;4.80;;;21.00;39.50;;;;;;5078749;28;20383;-59
2022/03/27 14:02:17;;;;;;;7.55;4.97;;;21.20;38.70;;;;;;5066065;28;20067;-59